09:17
Airports
History
Links
Donate
Help keep this website running!
PayPal
Bitcoin
This page is community maintained. The information is intended for PC simulator navigation or reference.
Always use approved charts for navigation.
0L5
Goldfield
Goldfield (0L5)
Goldfield, Nevada, United States (89013)
4
Lat/Lng:37° 43' 4.76" N / 117° 14' 18.28" W
37.717988 / -117.238412
Elevation:5680'ft / 1731mMSL
ID / ICAO:0L5
Runways:1
Longest:17-35
Gravel 966m / 3,168ft
Nearby Weather08:56 GMT 2018-02-21
Nearby weather at KTPH, Tonopah located 25.0 nautical miles from 0L5
Altimeter: 30.03
Visibility: 10.0 statute miles
Wind: 0 knots (from 000°)
Temp: -4°c / 25°f
Humidity: 16.1%

METAR: KTPH 210856Z AUTO 00000KT 10SM OVC075 M04/M26 A3003 RMK AO2 SLP190 T10441256 56003

(Powered by phpweather)
Nearby VORs <50NM
Nearby NDBs
Runway 17 / 35
Dimensions:965.6 x 11.3m 3168' x 37'ft
Surface:Gravel
Runway 17 [A]Runway 35 [B]
Heading:185°TH 005°TH
Lat:
Lng:
37° 43' 20.25"N
117° 14' 16.57"W
37° 42' 49.26"N
117° 14' 20"W
User Notes and Comments
37° 43' 4.76" N / 117° 14' 18.28" W
Distance To
Airport ID:
Nearby Airports
4 Lida Junction 15.9 NM
0L4 S 170°
(U) Tonopah 25.0 NM
KTPH ( WX ) NNE 19°
(R) Tonopah Test Range 25.6 NM
KTNX ENE 77°
4 Coaldale 41.4 NM
2Q6 WNW 301°
4 Dyer 42.7 NM
2Q9 W 259°
(R) Circle L Ranch 46.2 NM
NV27 W 269°
(R) North Valley 47.9 NM
9CA6 WNW 282°
VFR Chart
Flight Planning at SkyVector.com